createdAt,value
2019-04-14T00:00:31.496Z,37.05
2019-04-14T00:03:10.644Z,37.04
2019-04-14T00:05:42.922Z,37.00
2019-04-14T00:08:13.355Z,36.98
2019-04-14T00:10:42.788Z,36.89
2019-04-14T00:13:13.130Z,36.85
2019-04-14T00:15:47.041Z,36.88
2019-04-14T00:18:14.273Z,37.10
2019-04-14T00:20:46.948Z,37.10
2019-04-14T00:23:19.267Z,37.10
2019-04-14T00:25:48.128Z,37.03
2019-04-14T00:28:18.481Z,36.96
2019-04-14T00:30:49.037Z,36.77
2019-04-14T00:33:21.320Z,36.87
2019-04-14T00:36:02.244Z,37.05
2019-04-14T00:38:36.878Z,36.93
2019-04-14T00:41:09.318Z,37.22
2019-04-14T00:43:54.849Z,37.31
2019-04-14T00:46:35.726Z,37.31
2019-04-14T00:49:06.940Z,37.23
2019-04-14T00:51:38.355Z,37.17
2019-04-14T00:54:08.737Z,37.29
2019-04-14T00:56:39.006Z,37.18
2019-04-14T00:59:09.270Z,37.18
2019-04-14T01:01:39.459Z,37.46
2019-04-14T01:04:09.787Z,37.40
2019-04-14T01:06:40.383Z,37.33
2019-04-14T01:09:12.840Z,37.45
2019-04-14T01:11:42.394Z,37.51
2019-04-14T01:14:12.631Z,37.63
2019-04-14T01:16:43.003Z,38.03
2019-04-14T01:19:13.382Z,37.86
2019-04-14T01:21:43.598Z,38.29
2019-04-14T01:24:14.144Z,38.33
2019-04-14T01:26:44.243Z,38.40
2019-04-14T01:29:14.370Z,38.18
2019-04-14T01:31:51.442Z,38.07
2019-04-14T01:34:21.669Z,37.90
2019-04-14T01:36:56.132Z,37.88
2019-04-14T01:39:26.510Z,38.13
2019-04-14T01:41:56.428Z,37.92
2019-04-14T01:44:26.403Z,37.91
2019-04-14T01:46:56.571Z,38.32
2019-04-14T01:49:26.904Z,38.02
2019-04-14T01:52:01.390Z,38.02
2019-04-14T01:54:51.370Z,38.03
2019-04-14T01:57:22.679Z,38.24
2019-04-14T01:59:52.564Z,38.35
2019-04-14T02:02:25.254Z,38.65
2019-04-14T02:04:55.322Z,38.73
2019-04-14T02:07:25.577Z,38.49
2019-04-14T02:09:55.348Z,38.25
2019-04-14T02:12:25.655Z,38.14
2019-04-14T02:15:00.439Z,38.19
2019-04-14T02:17:30.707Z,38.33
2019-04-14T02:20:01.208Z,38.23
2019-04-14T02:22:31.267Z,38.47
2019-04-14T02:25:01.437Z,38.34
2019-04-14T02:27:31.758Z,38.24
2019-04-14T02:30:03.610Z,38.18
2019-04-14T02:32:57.366Z,38.35
2019-04-14T02:38:13.806Z,38.27
2019-04-14T02:40:36.452Z,38.27
2019-04-14T02:43:04.347Z,38.29
2019-04-14T02:45:52.142Z,38.54
2019-04-14T02:48:22.370Z,38.67
2019-04-14T02:55:44.843Z,39.35
2019-04-14T02:58:09.957Z,39.13
2019-04-14T03:00:41.845Z,39.11
2019-04-14T03:03:25.700Z,39.05
2019-04-14T03:05:55.154Z,38.82
2019-04-14T03:08:25.903Z,39.07
2019-04-14T03:10:49.778Z,38.96
2019-04-14T03:13:21.057Z,39.25
2019-04-14T03:18:38.131Z,38.76
2019-04-14T03:21:19.722Z,38.71
2019-04-14T03:24:03.588Z,38.78
2019-04-14T03:26:41.893Z,38.82
2019-04-14T03:29:19.556Z,39.00
2019-04-14T03:32:00.187Z,39.58
2019-04-14T03:34:34.575Z,39.48
2019-04-14T03:39:24.876Z,39.35
2019-04-14T03:41:54.755Z,39.81
2019-04-14T03:44:33.100Z,39.66
2019-04-14T03:47:03.106Z,39.73
2019-04-14T03:49:31.370Z,39.59
2019-04-14T03:51:57.960Z,39.60
2019-04-14T03:54:28.929Z,39.86
2019-04-14T03:56:46.626Z,40.19
2019-04-14T03:59:17.655Z,40.02
2019-04-14T04:01:47.900Z,39.91
2019-04-14T04:04:18.378Z,39.85
2019-04-14T04:06:48.587Z,39.68
2019-04-14T04:09:19.288Z,39.75
2019-04-14T04:11:50.331Z,40.09
2019-04-14T04:14:20.334Z,40.07
2019-04-14T04:16:52.919Z,39.95
2019-04-14T04:19:25.053Z,39.75
2019-04-14T04:21:55.235Z,39.58
2019-04-14T04:24:39.107Z,39.57
2019-04-14T04:27:26.605Z,39.54
2019-04-14T04:30:12.996Z,39.62
2019-04-14T04:32:44.781Z,39.77
2019-04-14T04:35:19.652Z,39.83
2019-04-14T04:37:51.932Z,39.82
2019-04-14T04:40:26.755Z,39.57
2019-04-14T04:42:56.956Z,39.49
2019-04-14T04:45:26.369Z,39.59
2019-04-14T04:47:55.756Z,39.61
2019-04-14T04:50:26.019Z,39.76
2019-04-14T04:52:56.191Z,39.61
2019-04-14T04:55:26.287Z,39.69
2019-04-14T04:57:56.631Z,39.71
2019-04-14T05:00:26.663Z,39.50
2019-04-14T05:02:57.139Z,39.55
2019-04-14T05:06:11.311Z,39.53
2019-04-14T05:08:43.441Z,39.66
2019-04-14T05:11:12.651Z,40.21
2019-04-14T05:13:44.611Z,40.43
2019-04-14T05:16:14.916Z,40.85
2019-04-14T05:18:44.251Z,40.61
2019-04-14T05:21:14.828Z,40.43
2019-04-14T05:23:45.270Z,40.37
2019-04-14T05:26:15.576Z,40.74
2019-04-14T05:28:46.015Z,40.17
2019-04-14T05:31:16.482Z,39.94
2019-04-14T05:33:46.895Z,40.03
2019-04-14T05:36:17.108Z,40.33
2019-04-14T05:38:47.428Z,39.93
2019-04-14T05:41:17.992Z,39.67
2019-04-14T05:43:53.738Z,39.65
2019-04-14T05:46:18.605Z,39.64
2019-04-14T05:48:49.162Z,39.55
2019-04-14T05:51:21.346Z,39.62
2019-04-14T05:53:50.178Z,39.58
2019-04-14T05:56:20.700Z,39.55
2019-04-14T05:58:51.429Z,39.43
2019-04-14T06:01:21.111Z,39.11
2019-04-14T06:03:51.717Z,39.20
2019-04-14T06:06:21.296Z,39.11
2019-04-14T06:08:50.635Z,38.98
2019-04-14T06:11:19.981Z,39.21
2019-04-14T06:13:49.337Z,39.14
2019-04-14T06:16:18.759Z,39.09
2019-04-14T06:18:48.125Z,38.92
2019-04-14T06:21:17.533Z,38.74
2019-04-14T06:23:46.882Z,38.38
2019-04-14T06:26:16.262Z,38.20
2019-04-14T06:28:45.606Z,37.88
2019-04-14T06:31:17.318Z,37.46
2019-04-14T06:33:51.039Z,37.37
2019-04-14T06:36:22.033Z,37.32
2019-04-14T06:38:53.112Z,37.39
2019-04-14T06:41:22.510Z,37.31
2019-04-14T06:43:51.923Z,37.26
2019-04-14T06:46:21.248Z,37.39
2019-04-14T06:48:50.601Z,37.43
2019-04-14T06:51:19.988Z,37.19
2019-04-14T06:53:49.328Z,37.11
2019-04-14T06:56:18.690Z,37.16
2019-04-14T06:58:48.106Z,37.16
2019-04-14T07:01:17.491Z,37.23
2019-04-14T07:03:46.846Z,37.42
2019-04-14T07:06:16.336Z,37.39
2019-04-14T07:08:45.689Z,37.45
2019-04-14T07:11:15.020Z,37.34
2019-04-14T07:13:47.835Z,37.17
2019-04-14T07:16:15.461Z,36.89
2019-04-14T07:18:44.788Z,36.76
2019-04-14T07:21:14.151Z,36.71
2019-04-14T07:23:43.486Z,36.38
2019-04-14T07:26:12.877Z,36.19
2019-04-14T07:28:42.220Z,36.00
2019-04-14T07:31:28.476Z,35.87
2019-04-14T07:34:11.763Z,35.78
2019-04-14T07:36:59.145Z,35.70
2019-04-14T07:39:33.126Z,35.82
2019-04-14T07:42:05.478Z,36.11
2019-04-14T07:44:47.588Z,35.92
2019-04-14T07:47:21.144Z,35.88
2019-04-14T07:49:50.251Z,35.85
2019-04-14T07:52:39.518Z,36.02
2019-04-14T07:55:10.491Z,35.86
2019-04-14T07:57:57.797Z,35.99
2019-04-14T08:00:33.069Z,36.39
2019-04-14T08:03:04.120Z,36.45
2019-04-14T08:05:41.069Z,36.66
2019-04-14T08:08:10.447Z,36.55
2019-04-14T08:10:40.855Z,36.23
2019-04-14T08:13:10.208Z,36.22
2019-04-14T08:15:39.574Z,35.86
2019-04-14T08:18:08.909Z,35.47
2019-04-14T08:20:38.371Z,35.71
2019-04-14T08:23:07.716Z,35.69
2019-04-14T08:25:37.071Z,35.57
2019-04-14T08:28:06.418Z,35.24
2019-04-14T08:30:35.941Z,35.12
2019-04-14T08:33:05.297Z,35.05
2019-04-14T08:35:34.635Z,35.02
2019-04-14T08:38:04.375Z,34.86
2019-04-14T08:40:33.710Z,34.79
2019-04-14T08:43:05.694Z,34.54
2019-04-14T08:45:36.680Z,34.47
2019-04-14T08:48:11.683Z,34.41
2019-04-14T08:50:48.426Z,33.76
2019-04-14T08:53:25.200Z,33.45
2019-04-14T08:55:56.188Z,33.13
2019-04-14T08:58:27.219Z,33.05
2019-04-14T09:01:05.610Z,33.08
2019-04-14T09:03:34.731Z,32.63
2019-04-14T09:06:05.729Z,31.36
2019-04-14T09:08:36.699Z,31.19
2019-04-14T09:11:13.856Z,31.44
2019-04-14T09:13:43.187Z,31.57
2019-04-14T09:16:12.563Z,31.67
2019-04-14T09:18:41.902Z,31.54
2019-04-14T09:21:11.238Z,31.85
2019-04-14T09:23:40.596Z,31.76
2019-04-14T09:26:10.001Z,31.58
2019-04-14T09:28:39.379Z,31.22
2019-04-14T09:31:08.773Z,30.60
2019-04-14T09:33:38.155Z,30.66
2019-04-14T09:36:10.203Z,30.55
2019-04-14T09:38:39.604Z,29.92
2019-04-14T09:41:09.070Z,29.93
2019-04-14T09:43:38.411Z,30.07
2019-04-14T09:46:07.763Z,30.22
2019-04-14T09:48:37.098Z,29.89
2019-04-14T09:51:06.463Z,29.78
2019-04-14T09:53:36.076Z,29.88
2019-04-14T09:56:05.462Z,29.62
2019-04-14T09:58:34.817Z,29.69
2019-04-14T10:01:04.225Z,29.50
2019-04-14T10:03:35.569Z,29.24
2019-04-14T10:06:04.635Z,28.86
2019-04-14T10:08:34.182Z,28.78
2019-04-14T10:11:03.607Z,29.54
2019-04-14T10:13:32.939Z,29.54
2019-04-14T10:16:02.331Z,29.51
2019-04-14T10:18:31.669Z,29.58
2019-04-14T10:21:01.030Z,29.70
2019-04-14T10:23:30.446Z,29.79
2019-04-14T10:25:59.821Z,29.52
2019-04-14T10:28:29.376Z,29.41
2019-04-14T10:30:58.727Z,29.37
2019-04-14T10:33:28.079Z,29.47
2019-04-14T10:35:57.492Z,29.79
2019-04-14T10:38:26.926Z,29.70
2019-04-14T10:40:56.257Z,29.42
2019-04-14T10:43:25.866Z,28.72
2019-04-14T10:45:55.196Z,27.82
2019-04-14T10:48:24.543Z,27.28
2019-04-14T10:50:53.999Z,27.18
2019-04-14T10:53:23.338Z,26.94
2019-04-14T10:55:52.958Z,26.22
2019-04-14T10:58:22.294Z,25.57
2019-04-14T11:00:53.027Z,25.80
2019-04-14T11:03:22.378Z,25.47
2019-04-14T11:05:53.357Z,25.50
2019-04-14T11:08:22.724Z,25.34
2019-04-14T11:10:52.056Z,25.83
2019-04-14T11:13:21.420Z,25.83
2019-04-14T11:15:50.776Z,26.08
2019-04-14T11:18:20.156Z,26.36
2019-04-14T11:20:49.498Z,26.85
2019-04-14T11:23:18.955Z,26.84
2019-04-14T11:25:48.306Z,27.00
2019-04-14T11:28:17.646Z,27.29
2019-04-14T11:30:47.160Z,27.49
2019-04-14T11:33:22.319Z,27.71
2019-04-14T11:36:02.063Z,27.72
2019-04-14T11:38:33.057Z,26.94
2019-04-14T11:41:04.165Z,25.78
2019-04-14T11:43:33.515Z,25.14
2019-04-14T11:46:03.715Z,25.00
2019-04-14T11:48:33.569Z,24.84
2019-04-14T11:51:02.914Z,25.07
2019-04-14T11:53:32.273Z,25.18
2019-04-14T11:56:01.619Z,25.29
2019-04-14T11:58:30.980Z,25.34
2019-04-14T12:01:12.432Z,25.64
2019-04-14T12:03:49.413Z,24.51
2019-04-14T12:06:36.706Z,25.01
2019-04-14T12:09:21.189Z,24.78
2019-04-14T12:11:50.583Z,25.41
2019-04-14T12:14:19.974Z,25.99
2019-04-14T12:16:49.277Z,26.05
2019-04-14T12:19:18.720Z,25.95
2019-04-14T12:21:48.187Z,25.99
2019-04-14T12:24:17.528Z,26.08
2019-04-14T12:26:46.899Z,26.10
2019-04-14T12:29:16.795Z,25.74
2019-04-14T12:31:46.565Z,25.75
2019-04-14T12:34:18.317Z,25.74
2019-04-14T12:36:47.210Z,25.62
2019-04-14T12:39:20.684Z,25.64
2019-04-14T12:41:51.675Z,25.48
2019-04-14T12:44:20.920Z,25.06
2019-04-14T12:47:08.282Z,24.94
2019-04-14T12:49:39.440Z,24.91
2019-04-14T12:52:21.319Z,25.00
2019-04-14T12:54:47.425Z,24.65
2019-04-14T12:57:18.407Z,24.21
2019-04-14T12:59:47.823Z,23.70
2019-04-14T13:02:18.808Z,23.34
2019-04-14T13:04:48.131Z,23.12
2019-04-14T13:07:17.577Z,23.30
2019-04-14T13:09:46.922Z,23.29
2019-04-14T13:12:16.387Z,23.20
2019-04-14T13:14:45.733Z,22.24
2019-04-14T13:17:15.068Z,20.63
2019-04-14T13:19:44.418Z,19.61
2019-04-14T13:22:13.818Z,18.90
2019-04-14T13:24:43.192Z,19.38
2019-04-14T13:27:12.602Z,20.05
2019-04-14T13:29:42.058Z,20.24
2019-04-14T13:32:11.432Z,20.62
2019-04-14T13:34:40.934Z,21.48
2019-04-14T13:37:10.311Z,22.00
2019-04-14T13:39:39.677Z,22.61
2019-04-14T13:42:09.018Z,22.90
2019-04-14T13:44:38.401Z,23.33
2019-04-14T13:47:07.831Z,23.48
2019-04-14T13:49:37.225Z,23.22
2019-04-14T13:52:06.564Z,23.18
2019-04-14T13:54:35.956Z,23.34
2019-04-14T13:57:05.416Z,23.40
2019-04-14T13:59:34.751Z,22.98
2019-04-14T14:02:04.173Z,22.56
2019-04-14T14:04:33.521Z,21.96
2019-04-14T14:07:02.855Z,21.67
2019-04-14T14:09:32.287Z,20.52
2019-04-14T14:12:03.365Z,20.32
2019-04-14T14:14:43.332Z,19.48
2019-04-14T14:17:14.325Z,18.08
2019-04-14T14:19:57.780Z,17.94
2019-04-14T14:22:37.432Z,18.36
2019-04-14T14:25:14.479Z,19.49
2019-04-14T14:27:43.801Z,20.59
2019-04-14T14:30:14.833Z,21.31
2019-04-14T14:32:44.197Z,21.88
2019-04-14T14:35:13.533Z,22.35
2019-04-14T14:37:43.039Z,23.07
2019-04-14T14:40:12.496Z,23.55
2019-04-14T14:42:41.869Z,24.01
2019-04-14T14:45:14.603Z,24.42
2019-04-14T14:47:45.591Z,24.66
2019-04-14T14:50:28.638Z,24.64
2019-04-14T14:52:58.081Z,24.78
2019-04-14T14:55:27.420Z,24.53
2019-04-14T14:57:56.783Z,22.73
2019-04-14T15:00:27.811Z,21.11
2019-04-14T15:02:57.210Z,20.16
2019-04-14T15:05:26.572Z,18.97
2019-04-14T15:07:55.921Z,18.67
2019-04-14T15:10:25.267Z,18.57
2019-04-14T15:12:54.669Z,18.30
2019-04-14T15:15:24.008Z,17.73
2019-04-14T15:17:53.364Z,18.01
2019-04-14T15:20:22.705Z,18.10
2019-04-14T15:22:52.430Z,17.34
2019-04-14T15:25:22.978Z,17.00
2019-04-14T15:27:52.320Z,17.59
2019-04-14T15:30:23.344Z,18.11
2019-04-14T15:32:52.653Z,18.46
2019-04-14T15:35:21.990Z,18.40
2019-04-14T15:37:51.367Z,18.16
2019-04-14T15:40:20.719Z,17.53
2019-04-14T15:42:50.095Z,17.78
2019-04-14T15:45:19.504Z,17.88
2019-04-14T15:47:48.846Z,18.02
2019-04-14T15:50:18.229Z,18.04
2019-04-14T15:52:47.583Z,17.89
2019-04-14T15:55:18.441Z,18.27
2019-04-14T15:57:52.553Z,18.87
2019-04-14T16:00:27.751Z,19.07
2019-04-14T16:03:04.391Z,18.73
2019-04-14T16:05:35.403Z,18.77
2019-04-14T16:08:08.841Z,18.88
2019-04-14T16:10:45.701Z,18.71
2019-04-14T16:13:19.271Z,18.60
2019-04-14T16:15:53.190Z,18.81
2019-04-14T16:18:37.965Z,18.67
2019-04-14T16:21:07.338Z,18.51
2019-04-14T16:23:49.732Z,18.73
2019-04-14T16:26:10.251Z,19.06
2019-04-14T16:28:41.251Z,19.49
2019-04-14T16:31:14.943Z,19.35
2019-04-14T16:34:02.008Z,18.87
2019-04-14T16:36:31.424Z,19.06
2019-04-14T16:39:00.786Z,19.21
2019-04-14T16:41:30.145Z,19.08
2019-04-14T16:43:59.515Z,19.53
2019-04-14T16:46:29.068Z,19.82
2019-04-14T16:48:58.558Z,19.97
2019-04-14T16:51:35.585Z,20.11
2019-04-14T16:54:10.141Z,20.03
2019-04-14T16:56:50.124Z,20.10
2019-04-14T16:59:19.461Z,20.35
2019-04-14T17:01:48.925Z,20.48
2019-04-14T17:04:18.266Z,20.77
2019-04-14T17:06:47.644Z,20.75
2019-04-14T17:09:17.123Z,21.00
2019-04-14T17:11:46.485Z,21.15
2019-04-14T17:14:17.502Z,21.40
2019-04-14T17:16:52.265Z,21.55
2019-04-14T17:19:25.869Z,21.67
2019-04-14T17:21:56.861Z,21.71
2019-04-14T17:24:33.282Z,21.99
2019-04-14T17:27:06.951Z,22.17
2019-04-14T17:29:43.976Z,22.56
2019-04-14T17:32:31.481Z,23.01
2019-04-14T17:35:02.477Z,23.36
2019-04-14T17:37:40.544Z,23.82
2019-04-14T17:40:27.079Z,24.10
2019-04-14T17:42:58.042Z,24.42
2019-04-14T17:45:35.127Z,24.81
2019-04-14T17:48:06.260Z,25.22
2019-04-14T17:50:40.789Z,25.57
2019-04-14T17:53:09.950Z,25.80
2019-04-14T17:55:50.058Z,25.95
2019-04-14T17:58:26.441Z,26.16
2019-04-14T18:01:13.258Z,26.40
2019-04-14T18:03:44.236Z,26.72
2019-04-14T18:06:16.534Z,26.73
2019-04-14T18:09:03.344Z,26.79
2019-04-14T18:11:34.356Z,26.90
2019-04-14T18:14:11.147Z,27.05
2019-04-14T18:16:40.384Z,27.05
2019-04-14T18:19:14.308Z,27.19
2019-04-14T18:21:44.344Z,27.28
2019-04-14T18:24:14.000Z,27.37
2019-04-14T18:26:43.349Z,27.54
2019-04-14T18:29:26.395Z,27.76
2019-04-14T18:32:15.968Z,28.05
2019-04-14T18:34:50.947Z,28.22
2019-04-14T18:37:23.046Z,28.55
2019-04-14T18:40:05.805Z,28.78
2019-04-14T18:42:52.678Z,28.91
2019-04-14T18:45:21.806Z,29.07
2019-04-14T18:47:52.808Z,29.34
2019-04-14T18:50:23.838Z,29.38
2019-04-14T18:53:06.724Z,29.50
2019-04-14T18:55:43.469Z,29.50
2019-04-14T18:58:15.290Z,29.46
2019-04-14T19:00:49.008Z,29.64
2019-04-14T19:03:18.338Z,29.86
2019-04-14T19:05:47.685Z,29.95
2019-04-14T19:08:17.016Z,30.07
2019-04-14T19:11:00.145Z,30.06
2019-04-14T19:13:31.129Z,30.21
2019-04-14T19:16:20.174Z,30.23
2019-04-14T19:19:00.173Z,30.07
2019-04-14T19:21:31.437Z,30.14
2019-04-14T19:24:00.780Z,30.27
2019-04-14T19:26:30.158Z,30.41
2019-04-14T19:28:59.561Z,30.35
2019-04-14T19:31:28.912Z,30.31
2019-04-14T19:33:58.273Z,30.18
2019-04-14T19:36:27.599Z,30.08
2019-04-14T19:38:56.968Z,29.83
2019-04-14T19:41:26.318Z,29.98
2019-04-14T19:43:55.741Z,30.01
2019-04-14T19:46:25.171Z,29.95
2019-04-14T19:48:54.512Z,29.94
2019-04-14T19:51:23.862Z,29.95
2019-04-14T19:53:53.229Z,30.04
2019-04-14T19:56:22.587Z,30.04
2019-04-14T19:58:51.914Z,29.99
2019-04-14T20:01:22.884Z,30.21
2019-04-14T20:03:52.235Z,30.30
2019-04-14T20:06:21.569Z,30.39
2019-04-14T20:08:50.928Z,30.42
2019-04-14T20:11:20.364Z,30.47
2019-04-14T20:13:49.760Z,30.56
2019-04-14T20:16:20.741Z,30.55
2019-04-14T20:18:51.719Z,30.42
2019-04-14T20:21:37.659Z,30.54
2019-04-14T20:24:11.312Z,30.50
2019-04-14T20:26:44.841Z,30.59
2019-04-14T20:29:18.504Z,30.60
2019-04-14T20:31:49.497Z,30.82
2019-04-14T20:34:18.830Z,31.17
2019-04-14T20:36:48.185Z,31.18
2019-04-14T20:39:19.165Z,31.22
2019-04-14T20:41:48.524Z,31.28
2019-04-14T20:44:18.200Z,31.74
2019-04-14T20:46:47.558Z,32.30
2019-04-14T20:49:16.977Z,32.34
2019-04-14T20:51:46.360Z,32.56
2019-04-14T20:54:15.680Z,32.70
2019-04-14T20:56:45.010Z,32.64
2019-04-14T20:59:14.369Z,32.86
2019-04-14T21:01:45.345Z,32.85
2019-04-14T21:04:18.741Z,32.87
2019-04-14T21:06:49.730Z,33.26
2019-04-14T21:09:26.449Z,33.13
2019-04-14T21:11:57.438Z,33.19
2019-04-14T21:14:28.403Z,33.38
2019-04-14T21:17:08.448Z,33.26
2019-04-14T21:19:55.238Z,33.37
2019-04-14T21:22:37.765Z,33.20
2019-04-14T21:25:24.403Z,33.13
2019-04-14T21:28:07.082Z,32.96
2019-04-14T21:30:53.090Z,32.90
2019-04-14T21:33:28.188Z,32.99
2019-04-14T21:35:59.406Z,33.07
2019-04-14T21:38:42.181Z,33.20
2019-04-14T21:41:18.843Z,33.16
2019-04-14T21:43:48.201Z,33.16
2019-04-14T21:46:17.540Z,33.15
2019-04-14T21:48:46.927Z,33.18
2019-04-14T21:51:16.257Z,33.22
2019-04-14T21:53:46.665Z,33.14
2019-04-14T21:56:16.030Z,33.07
2019-04-14T21:58:47.016Z,33.12
2019-04-14T22:01:38.838Z,33.22
2019-04-14T22:04:07.937Z,33.33
2019-04-14T22:06:41.924Z,33.39
2019-04-14T22:09:15.736Z,33.48
2019-04-14T22:11:45.100Z,33.48
2019-04-14T22:14:14.520Z,33.78
2019-04-14T22:16:43.877Z,33.80
2019-04-14T22:19:13.215Z,33.94
2019-04-14T22:21:42.738Z,34.01
2019-04-14T22:24:12.181Z,34.05
2019-04-14T22:26:41.601Z,34.11
2019-04-14T22:29:10.950Z,34.16
2019-04-14T22:31:40.296Z,34.35
2019-04-14T22:34:09.662Z,34.36
2019-04-14T22:36:38.996Z,34.38
2019-04-14T22:39:10.003Z,34.51
2019-04-14T22:41:39.343Z,34.73
2019-04-14T22:44:08.674Z,35.10
2019-04-14T22:46:38.040Z,35.00
2019-04-14T22:49:07.375Z,34.93
2019-04-14T22:51:36.741Z,34.98
2019-04-14T22:54:06.198Z,35.17
2019-04-14T22:56:39.397Z,35.33
2019-04-14T22:59:06.606Z,35.26
2019-04-14T23:01:37.593Z,35.09
2019-04-14T23:04:09.811Z,35.19
2019-04-14T23:06:43.492Z,35.07
2019-04-14T23:09:23.735Z,34.92
2019-04-14T23:11:58.727Z,34.88
2019-04-14T23:14:38.335Z,35.02
2019-04-14T23:17:25.340Z,34.98
2019-04-14T23:20:12.217Z,35.14
2019-04-14T23:22:56.538Z,35.07
2019-04-14T23:25:25.962Z,35.22
2019-04-14T23:27:55.319Z,35.29
2019-04-14T23:30:24.688Z,35.27
2019-04-14T23:32:54.040Z,35.21
2019-04-14T23:35:23.371Z,35.25
2019-04-14T23:37:52.793Z,35.26
2019-04-14T23:40:22.207Z,35.28
2019-04-14T23:42:51.578Z,35.51
2019-04-14T23:45:20.928Z,35.51
2019-04-14T23:47:50.302Z,35.55
2019-04-14T23:50:19.642Z,35.63
2019-04-14T23:52:49.018Z,35.76
2019-04-14T23:55:18.372Z,35.97
2019-04-14T23:57:47.939Z,36.17
